createdAt,value
2022-11-15T00:01:19.740Z,26.10
2022-11-15T00:03:27.238Z,26.83
2022-11-15T00:05:29.406Z,27.58
2022-11-15T00:07:54.161Z,27.52
2022-11-15T00:09:52.990Z,27.27
2022-11-15T00:11:55.131Z,26.00
2022-11-15T00:13:57.864Z,26.35
2022-11-15T00:16:01.354Z,26.52
2022-11-15T00:18:05.031Z,27.85
2022-11-15T00:20:07.473Z,27.85
2022-11-15T00:22:09.235Z,26.42
2022-11-15T00:24:11.502Z,27.50
2022-11-15T00:26:15.377Z,27.02
2022-11-15T00:28:17.194Z,27.20
2022-11-15T00:30:19.305Z,28.25
2022-11-15T00:32:21.122Z,27.25
2022-11-15T00:34:22.890Z,28.67
2022-11-15T00:36:25.249Z,32.35
2022-11-15T00:38:31.016Z,34.05
2022-11-15T00:40:32.942Z,29.60
2022-11-15T00:42:35.274Z,29.00
2022-11-15T00:44:37.056Z,29.35
2022-11-15T00:46:39.075Z,28.98
2022-11-15T00:48:41.179Z,28.33
2022-11-15T00:50:43.107Z,30.83
2022-11-15T00:52:45.294Z,29.65
2022-11-15T00:54:47.421Z,29.58
2022-11-15T00:56:49.175Z,30.52
2022-11-15T00:58:50.940Z,49.25
2022-11-15T01:00:53.337Z,31.48
2022-11-15T01:02:55.493Z,30.50
2022-11-15T01:04:57.349Z,32.33
2022-11-15T01:06:59.772Z,31.27
2022-11-15T01:09:01.645Z,33.65
2022-11-15T01:11:05.574Z,32.05
2022-11-15T01:13:07.947Z,32.35
2022-11-15T01:15:09.816Z,32.70
2022-11-15T01:17:11.695Z,32.17
2022-11-15T01:19:13.779Z,34.80
2022-11-15T01:21:19.340Z,32.30
2022-11-15T01:23:21.075Z,33.10
2022-11-15T01:25:23.432Z,35.00
2022-11-15T01:27:25.371Z,33.97
2022-11-15T01:29:27.382Z,33.70
2022-11-15T01:31:29.560Z,33.93
2022-11-15T01:33:32.064Z,33.90
2022-11-15T01:35:34.384Z,37.42
2022-11-15T01:37:36.787Z,34.40
2022-11-15T01:39:38.740Z,35.28
2022-11-15T01:41:40.800Z,36.40
2022-11-15T01:43:43.003Z,35.08
2022-11-15T01:45:48.216Z,35.13
2022-11-15T01:47:55.191Z,35.42
2022-11-15T01:50:05.215Z,35.55
2022-11-15T01:52:12.742Z,34.67
2022-11-15T01:54:18.310Z,35.67
2022-11-15T01:56:24.899Z,33.88
2022-11-15T01:58:26.684Z,35.17
2022-11-15T02:00:30.203Z,36.55
2022-11-15T02:02:35.070Z,43.55
2022-11-15T02:04:42.539Z,39.63
2022-11-15T02:06:46.200Z,38.88
2022-11-15T02:08:48.412Z,42.75
2022-11-15T02:10:50.177Z,37.25
2022-11-15T02:12:53.670Z,37.60
2022-11-15T02:14:57.196Z,39.72
2022-11-15T02:17:35.982Z,42.35
2022-11-15T02:20:00.097Z,34.03
2022-11-15T02:22:20.754Z,33.33
2022-11-15T02:24:26.045Z,33.40
2022-11-15T02:26:36.986Z,34.70
2022-11-15T02:29:27.681Z,34.55
2022-11-15T02:31:39.630Z,33.67
2022-11-15T02:33:44.568Z,36.05
2022-11-15T02:35:59.475Z,36.05
2022-11-15T02:38:30.993Z,32.80
2022-11-15T02:40:42.944Z,36.67
2022-11-15T02:43:12.526Z,37.78
2022-11-15T02:45:22.567Z,37.08
2022-11-15T02:47:28.551Z,36.53
2022-11-15T02:49:34.226Z,37.00
2022-11-15T02:51:36.667Z,45.95
2022-11-15T02:53:38.558Z,38.77
2022-11-15T02:55:47.438Z,36.53
2022-11-15T02:58:16.882Z,37.08
2022-11-15T03:00:20.335Z,36.58
2022-11-15T03:02:31.319Z,35.80
2022-11-15T03:04:57.386Z,37.60
2022-11-15T03:07:11.659Z,38.65
2022-11-15T03:09:25.407Z,37.42
2022-11-15T03:11:30.540Z,39.05
2022-11-15T03:13:40.761Z,38.90
2022-11-15T03:15:54.607Z,39.63
2022-11-15T03:18:01.860Z,41.15
2022-11-15T03:20:09.193Z,41.42
2022-11-15T03:22:16.430Z,39.72
2022-11-15T03:24:25.859Z,39.38
2022-11-15T03:26:31.319Z,41.58
2022-11-15T03:28:38.944Z,41.03
2022-11-15T03:30:42.515Z,38.97
2022-11-15T03:32:57.676Z,39.47
2022-11-15T03:35:04.927Z,40.78
2022-11-15T03:37:08.474Z,45.70
2022-11-15T03:41:50.735Z,42.20
2022-11-15T03:44:11.162Z,40.85
2022-11-15T03:46:21.423Z,40.63
2022-11-15T03:48:28.418Z,41.38
2022-11-15T03:50:31.075Z,38.13
2022-11-15T03:52:35.347Z,37.90
2022-11-15T03:54:37.364Z,37.78
2022-11-15T03:56:39.529Z,37.65
2022-11-15T03:58:41.430Z,41.25
2022-11-15T04:00:43.528Z,40.47
2022-11-15T04:02:45.774Z,41.25
2022-11-15T04:04:47.795Z,41.28
2022-11-15T04:06:49.711Z,38.87
2022-11-15T04:08:51.959Z,39.42
2022-11-15T04:10:54.040Z,42.33
2022-11-15T04:12:55.957Z,41.40
2022-11-15T04:15:08.391Z,38.38
2022-11-15T04:17:10.266Z,40.70
2022-11-15T04:19:30.844Z,40.15
2022-11-15T04:22:11.209Z,39.75
2022-11-15T04:24:16.187Z,41.47
2022-11-15T04:26:20.739Z,41.20
2022-11-15T04:28:23.790Z,43.03
2022-11-15T04:30:25.620Z,41.70
2022-11-15T04:32:27.427Z,41.78
2022-11-15T04:34:29.895Z,40.75
2022-11-15T04:36:50.097Z,41.20
2022-11-15T04:38:51.870Z,40.15
2022-11-15T04:40:54.220Z,41.90
2022-11-15T04:43:00.795Z,40.20
2022-11-15T04:45:05.291Z,39.42
2022-11-15T04:47:07.626Z,42.92
2022-11-15T04:49:09.391Z,43.88
2022-11-15T04:51:11.175Z,38.92
2022-11-15T04:53:13.443Z,39.40
2022-11-15T04:55:15.259Z,37.28
2022-11-15T04:57:17.059Z,39.20
2022-11-15T04:59:19.326Z,37.15
2022-11-15T05:01:21.177Z,38.20
2022-11-15T05:03:41.706Z,39.75
2022-11-15T05:05:43.949Z,37.80
2022-11-15T05:07:45.759Z,40.28
2022-11-15T05:09:47.528Z,37.28
2022-11-15T05:11:50.334Z,37.03
2022-11-15T05:13:52.123Z,37.17
2022-11-15T05:15:53.943Z,36.38
2022-11-15T05:18:01.525Z,38.67
2022-11-15T05:20:03.488Z,38.47
2022-11-15T05:22:05.266Z,38.08
2022-11-15T05:24:07.842Z,40.08
2022-11-15T05:26:10.403Z,40.33
2022-11-15T05:28:12.372Z,39.15
2022-11-15T05:30:15.405Z,40.17
2022-11-15T05:32:18.834Z,38.78
2022-11-15T05:34:22.676Z,40.95
2022-11-15T05:36:41.905Z,39.15
2022-11-15T05:38:43.689Z,39.35
2022-11-15T05:40:45.614Z,40.53
2022-11-15T05:42:48.011Z,40.30
2022-11-15T05:44:50.825Z,36.23
2022-11-15T05:46:55.756Z,36.63
2022-11-15T05:48:59.012Z,39.45
2022-11-15T05:53:05.298Z,38.15
2022-11-15T05:55:10.057Z,38.30
2022-11-15T05:57:12.128Z,37.53
2022-11-15T05:59:14.412Z,38.87
2022-11-15T06:01:16.814Z,38.33
2022-11-15T06:03:18.627Z,38.77
2022-11-15T06:05:20.414Z,38.35
2022-11-15T06:07:22.698Z,40.53
2022-11-15T06:09:24.520Z,38.22
2022-11-15T06:11:26.322Z,35.85
2022-11-15T06:13:28.595Z,35.67
2022-11-15T06:15:30.426Z,38.53
2022-11-15T06:17:32.258Z,37.38
2022-11-15T06:19:34.457Z,37.75
2022-11-15T06:21:36.703Z,36.60
2022-11-15T06:23:38.659Z,36.15
2022-11-15T06:25:40.887Z,36.20
2022-11-15T06:27:42.690Z,35.35
2022-11-15T06:29:44.463Z,36.30
2022-11-15T06:31:46.624Z,34.90
2022-11-15T06:33:50.512Z,35.90
2022-11-15T06:35:52.293Z,34.55
2022-11-15T06:37:54.640Z,34.08
2022-11-15T06:39:56.418Z,34.80
2022-11-15T06:41:58.246Z,31.85
2022-11-15T06:44:00.475Z,32.25
2022-11-15T06:46:04.010Z,32.03
2022-11-15T06:48:06.305Z,32.35
2022-11-15T06:50:08.865Z,32.03
2022-11-15T06:52:10.616Z,31.58
2022-11-15T06:54:12.406Z,33.70
2022-11-15T06:56:14.572Z,31.42
2022-11-15T06:58:16.446Z,31.80
2022-11-15T07:00:23.166Z,32.90
2022-11-15T07:02:25.397Z,32.03
2022-11-15T07:04:27.205Z,34.10
2022-11-15T07:06:29.006Z,32.63
2022-11-15T07:08:31.488Z,32.35
2022-11-15T07:10:33.258Z,32.53
2022-11-15T07:12:35.627Z,33.08
2022-11-15T07:14:37.792Z,34.22
2022-11-15T07:16:39.617Z,34.88
2022-11-15T07:18:41.797Z,32.83
2022-11-15T07:20:44.011Z,30.60
2022-11-15T07:22:48.733Z,31.45
2022-11-15T07:24:50.775Z,33.65
2022-11-15T07:26:53.027Z,31.30
2022-11-15T07:28:55.667Z,31.95
2022-11-15T07:30:57.688Z,30.65
2022-11-15T07:33:01.560Z,31.10
2022-11-15T07:35:03.498Z,31.85
2022-11-15T07:37:05.330Z,33.20
2022-11-15T07:39:07.589Z,32.15
2022-11-15T07:41:09.828Z,33.30
2022-11-15T07:43:11.690Z,32.10
2022-11-15T07:45:13.904Z,32.60
2022-11-15T07:47:15.740Z,30.25
2022-11-15T07:49:17.566Z,29.65
2022-11-15T07:51:19.825Z,28.85
2022-11-15T07:53:21.642Z,27.17
2022-11-15T07:55:24.513Z,28.05
2022-11-15T07:57:27.273Z,27.13
2022-11-15T07:59:29.058Z,29.27
2022-11-15T08:01:30.963Z,27.42
2022-11-15T08:03:34.512Z,27.77
2022-11-15T08:05:38.165Z,28.58
2022-11-15T08:07:41.248Z,28.35
2022-11-15T08:09:43.383Z,25.80
2022-11-15T08:11:45.215Z,27.67
2022-11-15T08:13:47.052Z,28.05
2022-11-15T08:15:53.420Z,27.15
2022-11-15T08:18:00.303Z,27.75
2022-11-15T08:20:02.285Z,30.80
2022-11-15T08:22:04.540Z,31.08
2022-11-15T08:24:06.908Z,31.50
2022-11-15T08:26:10.051Z,31.27
2022-11-15T08:28:12.327Z,32.45
2022-11-15T08:30:17.111Z,32.65
2022-11-15T08:32:19.144Z,31.05
2022-11-15T08:34:21.345Z,31.30
2022-11-15T08:36:23.320Z,28.30
2022-11-15T08:38:25.182Z,29.20
2022-11-15T08:40:28.106Z,29.08
2022-11-15T08:42:29.949Z,28.67
2022-11-15T08:44:31.840Z,29.52
2022-11-15T08:46:34.014Z,30.52
2022-11-15T08:48:36.173Z,29.05
2022-11-15T08:50:39.089Z,27.80
2022-11-15T08:52:41.265Z,30.02
2022-11-15T08:54:43.376Z,28.70
2022-11-15T08:56:45.146Z,28.57
2022-11-15T08:58:48.021Z,27.65
2022-11-15T09:00:49.836Z,29.40
2022-11-15T09:02:51.608Z,28.27
2022-11-15T09:04:53.850Z,28.02
2022-11-15T09:06:55.926Z,27.55
2022-11-15T09:08:58.725Z,28.20
2022-11-15T09:11:04.788Z,29.65
2022-11-15T09:13:06.763Z,28.67
2022-11-15T09:15:09.508Z,30.25
2022-11-15T09:19:13.938Z,28.80
2022-11-15T09:21:15.816Z,30.27
2022-11-15T09:23:18.254Z,29.27
2022-11-15T09:25:20.368Z,28.80
2022-11-15T09:27:22.177Z,28.83
2022-11-15T09:29:24.627Z,29.63
2022-11-15T09:31:26.998Z,28.67
2022-11-15T09:33:29.706Z,29.13
2022-11-15T09:35:33.003Z,28.38
2022-11-15T09:37:34.856Z,29.40
2022-11-15T09:39:36.783Z,28.98
2022-11-15T09:42:07.101Z,30.77
2022-11-15T09:44:26.085Z,30.55
2022-11-15T09:46:51.823Z,30.85
2022-11-15T09:48:55.203Z,29.90
2022-11-15T09:51:00.247Z,29.90
2022-11-15T09:53:02.845Z,30.35
2022-11-15T09:55:06.949Z,31.00
2022-11-15T09:57:16.685Z,30.13
2022-11-15T09:59:33.632Z,31.15
2022-11-15T10:01:45.967Z,31.63
2022-11-15T10:03:47.900Z,30.52
2022-11-15T10:05:55.623Z,30.98
2022-11-15T10:08:14.582Z,28.80
2022-11-15T10:10:26.750Z,30.15
2022-11-15T10:12:29.684Z,29.98
2022-11-15T10:14:32.733Z,29.75
2022-11-15T10:19:19.991Z,29.13
2022-11-15T10:21:29.282Z,29.85
2022-11-15T10:23:32.966Z,31.52
2022-11-15T10:25:35.907Z,32.10
2022-11-15T10:27:39.058Z,30.60
2022-11-15T10:29:47.225Z,32.22
2022-11-15T10:31:49.702Z,29.58
2022-11-15T10:33:52.648Z,30.73
2022-11-15T10:36:10.068Z,30.85
2022-11-15T10:38:13.005Z,31.38
2022-11-15T10:42:30.101Z,30.30
2022-11-15T10:44:32.805Z,32.08
2022-11-15T10:46:46.685Z,31.42
2022-11-15T10:48:50.327Z,32.20
2022-11-15T10:50:53.966Z,32.35
2022-11-15T10:52:56.097Z,32.13
2022-11-15T10:55:05.204Z,32.90
2022-11-15T10:57:19.428Z,30.85
2022-11-15T10:59:29.196Z,31.35
2022-11-15T11:01:31.489Z,32.40
2022-11-15T11:03:41.392Z,31.75
2022-11-15T11:05:43.363Z,31.65
2022-11-15T11:07:59.425Z,33.30
2022-11-15T11:10:49.402Z,31.52
2022-11-15T11:12:40.547Z,32.17
2022-11-15T11:14:42.425Z,33.25
2022-11-15T11:16:53.970Z,31.70
2022-11-15T11:19:14.423Z,33.22
2022-11-15T11:21:31.109Z,35.58
2022-11-15T11:23:50.143Z,33.13
2022-11-15T11:26:29.593Z,34.20
2022-11-15T11:28:48.139Z,34.00
2022-11-15T11:31:14.174Z,34.95
2022-11-15T11:33:23.909Z,35.03
2022-11-15T11:35:37.829Z,35.47
2022-11-15T11:37:53.594Z,36.63
2022-11-15T11:40:13.699Z,39.33
2022-11-15T11:42:37.515Z,36.55
2022-11-15T11:47:34.755Z,37.03
2022-11-15T11:49:39.742Z,38.45
2022-11-15T11:51:48.736Z,38.95
2022-11-15T11:53:57.561Z,38.47
2022-11-15T11:56:05.378Z,37.40
2022-11-15T11:58:23.298Z,38.92
2022-11-15T12:00:29.519Z,37.33
2022-11-15T12:02:40.468Z,36.63
2022-11-15T12:04:48.756Z,38.92
2022-11-15T12:07:05.866Z,39.80
2022-11-15T12:09:36.870Z,38.53
2022-11-15T12:11:57.645Z,36.58
2022-11-15T12:14:06.387Z,38.05
2022-11-15T12:16:21.137Z,40.20
2022-11-15T12:18:22.983Z,37.03
2022-11-15T12:20:29.111Z,39.45
2022-11-15T12:22:42.627Z,38.70
2022-11-15T12:24:53.639Z,39.83
2022-11-15T12:26:55.439Z,38.78
2022-11-15T12:29:17.735Z,38.50
2022-11-15T12:31:31.586Z,36.25
2022-11-15T12:33:41.144Z,39.22
2022-11-15T12:35:43.956Z,38.97
2022-11-15T12:37:50.993Z,37.55
2022-11-15T12:40:11.465Z,38.72
2022-11-15T12:42:13.646Z,38.35
2022-11-15T12:44:33.936Z,40.13
2022-11-15T12:46:41.658Z,39.03
2022-11-15T12:48:43.808Z,37.58
2022-11-15T12:50:57.320Z,38.90
2022-11-15T12:53:24.446Z,38.90
2022-11-15T12:55:32.985Z,38.53
2022-11-15T12:57:40.423Z,38.88
2022-11-15T12:59:54.294Z,37.30
2022-11-15T13:01:59.247Z,37.40
2022-11-15T13:04:27.541Z,39.70
2022-11-15T13:06:50.120Z,39.05
2022-11-15T13:08:52.088Z,41.08
2022-11-15T13:10:53.932Z,39.35
2022-11-15T13:13:05.328Z,40.25
2022-11-15T13:15:13.177Z,38.92
2022-11-15T13:17:26.380Z,39.40
2022-11-15T13:19:29.596Z,40.63
2022-11-15T13:21:50.697Z,40.88
2022-11-15T13:23:54.735Z,40.42
2022-11-15T13:26:17.780Z,41.58
2022-11-15T13:28:20.596Z,42.92
2022-11-15T13:30:25.578Z,40.58
2022-11-15T13:32:27.838Z,42.13
2022-11-15T13:34:53.316Z,41.85
2022-11-15T13:36:55.531Z,43.13
2022-11-15T13:39:03.691Z,41.63
2022-11-15T13:41:33.773Z,40.58
2022-11-15T13:43:37.049Z,41.03
2022-11-15T13:45:39.006Z,40.00
2022-11-15T13:47:41.473Z,41.05
2022-11-15T13:49:45.910Z,41.33
2022-11-15T13:51:51.576Z,40.95
2022-11-15T13:54:08.425Z,42.40
2022-11-15T13:56:10.839Z,41.30
2022-11-15T13:58:14.334Z,41.95
2022-11-15T14:00:26.675Z,39.92
2022-11-15T14:02:33.154Z,41.35
2022-11-15T14:04:35.408Z,42.10
2022-11-15T14:06:47.151Z,41.33
2022-11-15T14:09:02.535Z,41.17
2022-11-15T14:11:21.151Z,40.72
2022-11-15T14:13:32.425Z,42.20
2022-11-15T14:15:36.611Z,40.63
2022-11-15T14:17:39.543Z,40.90
2022-11-15T14:19:41.904Z,41.00
2022-11-15T14:22:11.790Z,40.22
2022-11-15T14:24:22.185Z,41.05
2022-11-15T14:26:34.025Z,40.47
2022-11-15T14:28:39.180Z,40.22
2022-11-15T14:30:42.563Z,39.63
2022-11-15T14:32:51.930Z,41.05
2022-11-15T14:35:02.422Z,41.45
2022-11-15T14:37:04.225Z,40.35
2022-11-15T14:39:06.562Z,40.00
2022-11-15T14:41:20.049Z,42.33
2022-11-15T14:43:22.224Z,40.40
2022-11-15T14:45:24.411Z,38.47
2022-11-15T14:47:26.233Z,38.67
2022-11-15T14:49:28.030Z,37.75
2022-11-15T14:51:30.387Z,40.58
2022-11-15T14:53:32.314Z,40.65
2022-11-15T14:55:37.262Z,41.17
2022-11-15T14:57:39.556Z,40.88
2022-11-15T14:59:41.345Z,60.25
2022-11-15T15:01:43.459Z,42.85
2022-11-15T15:03:45.610Z,44.00
2022-11-15T15:05:47.493Z,42.08
2022-11-15T15:07:49.637Z,41.10
2022-11-15T15:09:51.955Z,40.63
2022-11-15T15:11:55.694Z,42.17
2022-11-15T15:14:00.642Z,41.70
2022-11-15T15:16:02.807Z,44.40
2022-11-15T15:18:07.305Z,47.00
2022-11-15T15:20:10.182Z,45.65
2022-11-15T15:22:17.747Z,44.20
2022-11-15T15:24:19.539Z,43.13
2022-11-15T15:26:22.526Z,42.75
2022-11-15T15:28:27.579Z,44.55
2022-11-15T15:30:31.918Z,41.85
2022-11-15T15:32:34.095Z,41.42
2022-11-15T15:34:36.250Z,40.90
2022-11-15T15:36:38.185Z,40.85
2022-11-15T15:38:42.343Z,42.08
2022-11-15T15:40:44.571Z,42.50
2022-11-15T15:42:46.753Z,44.00
2022-11-15T15:44:49.742Z,42.20
2022-11-15T15:46:52.223Z,40.70
2022-11-15T15:48:54.438Z,41.65
2022-11-15T15:50:56.269Z,41.95
2022-11-15T15:53:01.131Z,43.88
2022-11-15T15:55:03.017Z,41.85
2022-11-15T15:57:06.046Z,45.63
2022-11-15T15:59:08.186Z,44.63
2022-11-15T16:01:10.514Z,44.50
2022-11-15T16:03:12.390Z,44.60
2022-11-15T16:05:14.883Z,57.38
2022-11-15T16:07:22.208Z,48.70
2022-11-15T16:09:44.409Z,46.28
2022-11-15T16:11:47.564Z,46.33
2022-11-15T16:15:54.062Z,44.25
2022-11-15T16:17:58.443Z,46.15
2022-11-15T16:20:00.535Z,42.58
2022-11-15T16:22:02.880Z,44.55
2022-11-15T16:24:05.592Z,43.28
2022-11-15T16:26:20.603Z,46.17
2022-11-15T16:28:27.985Z,44.90
2022-11-15T16:30:30.261Z,43.75
2022-11-15T16:32:32.123Z,45.17
2022-11-15T16:34:38.744Z,45.75
2022-11-15T16:36:42.720Z,51.28
2022-11-15T16:38:44.607Z,44.35
2022-11-15T16:40:46.662Z,43.35
2022-11-15T16:42:48.841Z,44.90
2022-11-15T16:44:50.639Z,44.85
2022-11-15T16:46:52.910Z,46.25
2022-11-15T16:48:55.613Z,44.53
2022-11-15T16:50:59.023Z,45.80
2022-11-15T16:53:00.994Z,40.40
2022-11-15T16:55:03.419Z,41.10
2022-11-15T16:57:05.500Z,41.00
2022-11-15T16:59:07.613Z,43.95
2022-11-15T17:01:32.592Z,43.03
2022-11-15T17:03:34.533Z,44.15
2022-11-15T17:05:36.327Z,42.83
2022-11-15T17:07:39.498Z,42.00
2022-11-15T17:09:41.481Z,40.58
2022-11-15T17:11:43.693Z,40.78
2022-11-15T17:13:46.247Z,39.08
2022-11-15T17:15:48.126Z,39.47
2022-11-15T17:17:54.274Z,36.90
2022-11-15T17:19:56.601Z,36.38
2022-11-15T17:21:58.465Z,37.38
2022-11-15T17:24:00.593Z,37.20
2022-11-15T17:26:28.257Z,36.53
2022-11-15T17:28:27.698Z,37.30
2022-11-15T17:30:29.857Z,36.80
2022-11-15T17:32:31.637Z,39.13
2022-11-15T17:34:33.512Z,36.17
2022-11-15T17:36:35.779Z,38.40
2022-11-15T17:38:37.673Z,38.60
2022-11-15T17:40:39.491Z,35.97
2022-11-15T17:42:42.340Z,33.83
2022-11-15T17:44:44.129Z,34.65
2022-11-15T17:46:45.997Z,41.75
2022-11-15T17:48:48.772Z,36.58
2022-11-15T17:50:57.811Z,35.97
2022-11-15T17:53:00.549Z,37.28
2022-11-15T17:55:02.831Z,36.72
2022-11-15T17:57:04.645Z,35.25
2022-11-15T17:59:12.903Z,35.17
2022-11-15T18:01:24.172Z,34.40
2022-11-15T18:03:26.585Z,37.25
2022-11-15T18:05:28.695Z,36.13
2022-11-15T18:07:31.106Z,37.75
2022-11-15T18:09:33.220Z,33.77
2022-11-15T18:11:39.227Z,35.63
2022-11-15T18:13:49.463Z,34.10
2022-11-15T18:15:55.454Z,33.90
2022-11-15T18:18:00.864Z,34.35
2022-11-15T18:20:04.236Z,33.28
2022-11-15T18:22:09.973Z,34.95
2022-11-15T18:24:11.730Z,33.25
2022-11-15T18:26:16.722Z,32.35
2022-11-15T18:28:18.510Z,33.08
2022-11-15T18:30:20.340Z,31.05
2022-11-15T18:32:22.482Z,31.25
2022-11-15T18:34:27.085Z,33.70
2022-11-15T18:36:30.663Z,33.55
2022-11-15T18:38:34.087Z,31.02
2022-11-15T18:40:36.012Z,32.30
2022-11-15T18:42:37.930Z,30.05
2022-11-15T18:44:40.118Z,30.98
2022-11-15T18:46:42.496Z,29.95
2022-11-15T18:48:45.634Z,29.50
2022-11-15T18:50:47.862Z,28.77
2022-11-15T18:52:49.703Z,30.40
2022-11-15T18:54:51.516Z,27.88
2022-11-15T18:56:53.727Z,30.30
2022-11-15T18:58:58.214Z,31.40
2022-11-15T19:01:09.510Z,32.92
2022-11-15T19:03:11.909Z,29.20
2022-11-15T19:05:15.714Z,28.42
2022-11-15T19:07:17.577Z,28.75
2022-11-15T19:09:19.984Z,29.85
2022-11-15T19:11:27.099Z,29.38
2022-11-15T19:13:28.972Z,28.98
2022-11-15T19:15:31.179Z,28.33
2022-11-15T19:17:33.032Z,27.98
2022-11-15T19:19:35.266Z,29.13
2022-11-15T19:21:37.178Z,28.13
2022-11-15T19:23:41.109Z,26.95
2022-11-15T19:25:43.289Z,27.63
2022-11-15T19:27:45.235Z,26.02
2022-11-15T19:29:47.057Z,27.38
2022-11-15T19:31:49.369Z,24.60
2022-11-15T19:33:52.825Z,25.90
2022-11-15T19:36:01.794Z,27.25
2022-11-15T19:38:03.964Z,26.83
2022-11-15T19:40:06.343Z,29.45
2022-11-15T19:42:08.199Z,26.23
2022-11-15T19:44:11.854Z,25.45
2022-11-15T19:46:15.296Z,26.90
2022-11-15T19:48:17.155Z,26.38
2022-11-15T19:50:19.549Z,26.55
2022-11-15T19:52:24.320Z,28.17
2022-11-15T19:54:26.127Z,24.67
2022-11-15T19:56:28.652Z,24.40
2022-11-15T19:58:31.008Z,25.30
2022-11-15T20:00:33.094Z,25.05
2022-11-15T20:02:35.265Z,24.95
2022-11-15T20:04:37.072Z,23.65
2022-11-15T20:06:41.422Z,25.48
2022-11-15T20:08:44.786Z,24.73
2022-11-15T20:12:50.041Z,24.15
2022-11-15T20:14:52.193Z,27.02
2022-11-15T20:16:54.621Z,26.98
2022-11-15T20:18:56.734Z,28.35
2022-11-15T20:20:59.360Z,26.63
2022-11-15T20:23:03.428Z,27.67
2022-11-15T20:25:05.888Z,27.17
2022-11-15T20:27:08.625Z,26.30
2022-11-15T20:29:11.189Z,26.17
2022-11-15T20:31:13.237Z,25.73
2022-11-15T20:33:15.828Z,25.90
2022-11-15T20:35:17.880Z,26.27
2022-11-15T20:37:20.625Z,23.42
2022-11-15T20:39:23.524Z,25.27
2022-11-15T20:41:26.054Z,23.40
2022-11-15T20:43:28.213Z,24.17
2022-11-15T20:45:31.160Z,23.88
2022-11-15T20:47:33.160Z,22.35
2022-11-15T20:49:34.969Z,21.73
2022-11-15T20:51:37.255Z,23.60
2022-11-15T20:53:39.042Z,23.77
2022-11-15T20:55:42.883Z,23.42
2022-11-15T20:57:45.150Z,23.17
2022-11-15T20:59:47.500Z,23.00
2022-11-15T21:01:49.456Z,23.10
2022-11-15T21:03:53.530Z,22.92
2022-11-15T21:05:55.699Z,23.27
2022-11-15T21:07:57.597Z,29.52
2022-11-15T21:10:18.164Z,24.10
2022-11-15T21:12:20.108Z,21.02
2022-11-15T21:14:22.660Z,21.63
2022-11-15T21:16:24.876Z,21.83
2022-11-15T21:18:26.650Z,21.30
2022-11-15T21:20:28.655Z,20.98
2022-11-15T21:22:31.042Z,20.23
2022-11-15T21:24:32.910Z,19.92
2022-11-15T21:26:35.891Z,19.98
2022-11-15T21:28:38.108Z,18.48
2022-11-15T21:30:40.199Z,15.90
2022-11-15T21:32:45.024Z,15.07
2022-11-15T21:34:47.264Z,14.15
2022-11-15T21:36:49.106Z,15.00
2022-11-15T21:38:50.974Z,15.65
2022-11-15T21:40:53.947Z,14.27
2022-11-15T21:42:55.843Z,13.05
2022-11-15T21:44:57.704Z,14.45
2022-11-15T21:47:00.376Z,14.45
2022-11-15T21:49:02.200Z,14.75
2022-11-15T21:51:06.565Z,15.55
2022-11-15T21:53:08.809Z,16.20
2022-11-15T21:55:10.619Z,15.60
2022-11-15T21:57:12.435Z,15.55
2022-11-15T21:59:14.642Z,17.45
2022-11-15T22:01:34.971Z,16.38
2022-11-15T22:03:36.933Z,17.35
2022-11-15T22:05:39.224Z,16.98
2022-11-15T22:07:41.239Z,18.17
2022-11-15T22:09:43.170Z,18.00
2022-11-15T22:11:45.414Z,19.35
2022-11-15T22:13:47.479Z,18.57
2022-11-15T22:15:51.487Z,18.10
2022-11-15T22:17:59.298Z,19.02
2022-11-15T22:20:16.639Z,20.73
2022-11-15T22:22:23.570Z,19.27
2022-11-15T22:24:25.728Z,19.70
2022-11-15T22:26:27.697Z,20.73
2022-11-15T22:28:30.658Z,19.27
2022-11-15T22:30:32.799Z,21.10
2022-11-15T22:32:34.713Z,21.25
2022-11-15T22:34:39.802Z,20.40
2022-11-15T22:37:13.156Z,21.10
2022-11-15T22:39:07.694Z,20.85
2022-11-15T22:41:09.893Z,22.08
2022-11-15T22:43:13.721Z,21.95
2022-11-15T22:45:16.034Z,21.73
2022-11-15T22:47:19.278Z,21.88
2022-11-15T22:49:21.203Z,22.95
2022-11-15T22:51:23.540Z,22.73
2022-11-15T22:53:26.417Z,21.88
2022-11-15T22:55:28.467Z,22.58
2022-11-15T22:57:30.952Z,21.95
2022-11-15T22:59:32.979Z,23.17
2022-11-15T23:01:34.895Z,21.55
2022-11-15T23:03:37.239Z,21.25
2022-11-15T23:05:39.163Z,21.13
2022-11-15T23:07:41.160Z,22.55
2022-11-15T23:09:47.770Z,22.52
2022-11-15T23:12:11.113Z,22.70
2022-11-15T23:14:13.050Z,22.50
2022-11-15T23:16:34.729Z,21.98
2022-11-15T23:18:39.274Z,21.08
2022-11-15T23:20:43.773Z,22.65
2022-11-15T23:22:49.073Z,22.63
2022-11-15T23:24:52.621Z,22.58
2022-11-15T23:26:57.338Z,21.58
2022-11-15T23:28:59.753Z,22.65
2022-11-15T23:31:26.443Z,24.37
2022-11-15T23:33:46.830Z,21.48
2022-11-15T23:35:55.455Z,25.05
2022-11-15T23:37:57.363Z,23.15
2022-11-15T23:39:59.339Z,24.23
2022-11-15T23:42:06.068Z,23.63
2022-11-15T23:44:10.772Z,23.20
2022-11-15T23:46:12.696Z,22.33
2022-11-15T23:48:15.040Z,24.63
2022-11-15T23:50:17.321Z,23.23
2022-11-15T23:52:19.233Z,23.10
2022-11-15T23:54:21.612Z,22.60
2022-11-15T23:56:23.511Z,22.45
2022-11-15T23:58:25.660Z,23.63
